Terminal Aerodrome Forecast
Issued by NWS

Home | Current Version | Previous Version | Text Only | Print | Product List | Glossary On
Versions: 1 2 3 4 5 6 7 8 9 10 11 12 13 14 15
000
FTUS46 KLOX 011737
TAFBUR
TAF
KBUR 011737Z 0118/0218 19004KT 6SM HZ SKC
     FM012000 18007KT P6SM SKC
     FM020500 VRB03KT P6SM SKC
     FM021100 VRB03KT P6SM BKN007=

USA.gov is the U.S. government's official web portal to all federal, state and local government web resources and services.